sensor_id;sensor_type;location;lat;lon;timestamp;P1;durP1;ratioP1;P2;durP2;ratioP2
4122;SDS011;2075;51.062;6.920;2023-04-25T00:01:44;21.40;;;6.07;;
4122;SDS011;2075;51.062;6.920;2023-04-25T00:04:30;18.20;;;5.73;;
4122;SDS011;2075;51.062;6.920;2023-04-25T00:07:17;22.80;;;5.70;;
4122;SDS011;2075;51.062;6.920;2023-04-25T00:10:03;10.67;;;5.00;;
4122;SDS011;2075;51.062;6.920;2023-04-25T00:12:48;11.53;;;5.07;;
4122;SDS011;2075;51.062;6.920;2023-04-25T00:15:35;9.13;;;4.37;;
4122;SDS011;2075;51.062;6.920;2023-04-25T00:18:21;12.90;;;5.03;;
4122;SDS011;2075;51.062;6.920;2023-04-25T00:21:07;13.10;;;5.20;;
4122;SDS011;2075;51.062;6.920;2023-04-25T00:23:54;15.20;;;4.70;;
4122;SDS011;2075;51.062;6.920;2023-04-25T00:26:40;18.60;;;5.73;;
4122;SDS011;2075;51.062;6.920;2023-04-25T00:29:25;9.23;;;4.50;;
4122;SDS011;2075;51.062;6.920;2023-04-25T00:32:12;16.90;;;5.07;;
4122;SDS011;2075;51.062;6.920;2023-04-25T00:34:57;10.33;;;4.13;;
4122;SDS011;2075;51.062;6.920;2023-04-25T00:37:42;13.10;;;5.20;;
4122;SDS011;2075;51.062;6.920;2023-04-25T00:40:28;14.03;;;5.03;;
4122;SDS011;2075;51.062;6.920;2023-04-25T00:43:14;14.10;;;5.70;;
4122;SDS011;2075;51.062;6.920;2023-04-25T00:45:59;9.60;;;4.70;;
4122;SDS011;2075;51.062;6.920;2023-04-25T00:48:46;16.73;;;4.80;;
4122;SDS011;2075;51.062;6.920;2023-04-25T00:51:31;13.37;;;5.57;;
4122;SDS011;2075;51.062;6.920;2023-04-25T00:54:17;14.03;;;5.43;;
4122;SDS011;2075;51.062;6.920;2023-04-25T00:57:03;9.77;;;5.13;;
4122;SDS011;2075;51.062;6.920;2023-04-25T00:59:48;8.37;;;4.50;;
4122;SDS011;2075;51.062;6.920;2023-04-25T01:02:36;14.40;;;4.30;;
4122;SDS011;2075;51.062;6.920;2023-04-25T01:05:24;16.80;;;5.70;;
4122;SDS011;2075;51.062;6.920;2023-04-25T01:08:09;11.90;;;4.60;;
4122;SDS011;2075;51.062;6.920;2023-04-25T01:10:55;14.97;;;5.23;;
4122;SDS011;2075;51.062;6.920;2023-04-25T01:13:40;22.47;;;5.80;;
4122;SDS011;2075;51.062;6.920;2023-04-25T01:16:26;12.03;;;4.47;;
4122;SDS011;2075;51.062;6.920;2023-04-25T01:19:11;18.23;;;5.70;;
4122;SDS011;2075;51.062;6.920;2023-04-25T01:22:05;9.53;;;5.60;;
4122;SDS011;2075;51.062;6.920;2023-04-25T01:24:50;17.20;;;5.50;;
4122;SDS011;2075;51.062;6.920;2023-04-25T01:27:35;19.10;;;6.27;;
4122;SDS011;2075;51.062;6.920;2023-04-25T01:30:21;14.27;;;5.43;;
4122;SDS011;2075;51.062;6.920;2023-04-25T01:33:07;9.67;;;4.70;;
4122;SDS011;2075;51.062;6.920;2023-04-25T01:35:53;9.40;;;4.30;;
4122;SDS011;2075;51.062;6.920;2023-04-25T01:38:40;15.60;;;4.97;;
4122;SDS011;2075;51.062;6.920;2023-04-25T01:41:25;13.20;;;4.90;;
4122;SDS011;2075;51.062;6.920;2023-04-25T01:44:11;10.60;;;3.63;;
4122;SDS011;2075;51.062;6.920;2023-04-25T01:46:56;9.47;;;4.73;;
4122;SDS011;2075;51.062;6.920;2023-04-25T01:49:43;12.50;;;4.50;;
4122;SDS011;2075;51.062;6.920;2023-04-25T01:52:29;16.70;;;4.53;;
4122;SDS011;2075;51.062;6.920;2023-04-25T01:55:16;18.17;;;5.50;;
4122;SDS011;2075;51.062;6.920;2023-04-25T01:58:11;16.20;;;4.90;;
4122;SDS011;2075;51.062;6.920;2023-04-25T02:01:17;10.53;;;4.60;;
4122;SDS011;2075;51.062;6.920;2023-04-25T02:04:11;12.60;;;4.90;;
4122;SDS011;2075;51.062;6.920;2023-04-25T02:06:58;16.37;;;5.00;;
4122;SDS011;2075;51.062;6.920;2023-04-25T02:09:51;9.70;;;5.00;;
4122;SDS011;2075;51.062;6.920;2023-04-25T02:12:39;9.43;;;4.00;;
4122;SDS011;2075;51.062;6.920;2023-04-25T02:15:42;11.13;;;4.50;;
4122;SDS011;2075;51.062;6.920;2023-04-25T02:18:32;7.73;;;4.10;;
4122;SDS011;2075;51.062;6.920;2023-04-25T02:21:17;6.63;;;3.93;;
4122;SDS011;2075;51.062;6.920;2023-04-25T02:24:03;14.50;;;4.60;;
4122;SDS011;2075;51.062;6.920;2023-04-25T02:26:51;8.80;;;4.27;;
4122;SDS011;2075;51.062;6.920;2023-04-25T02:29:37;13.70;;;4.60;;
4122;SDS011;2075;51.062;6.920;2023-04-25T02:32:22;10.80;;;4.20;;
4122;SDS011;2075;51.062;6.920;2023-04-25T02:35:08;7.93;;;3.80;;
4122;SDS011;2075;51.062;6.920;2023-04-25T02:37:53;13.73;;;4.87;;
4122;SDS011;2075;51.062;6.920;2023-04-25T02:40:39;13.13;;;4.30;;
4122;SDS011;2075;51.062;6.920;2023-04-25T02:43:24;8.00;;;3.90;;
4122;SDS011;2075;51.062;6.920;2023-04-25T02:46:11;11.13;;;3.93;;
4122;SDS011;2075;51.062;6.920;2023-04-25T02:48:57;8.60;;;3.77;;
4122;SDS011;2075;51.062;6.920;2023-04-25T02:51:42;9.17;;;4.27;;
4122;SDS011;2075;51.062;6.920;2023-04-25T02:54:28;10.33;;;3.60;;
4122;SDS011;2075;51.062;6.920;2023-04-25T02:57:14;10.00;;;4.30;;
4122;SDS011;2075;51.062;6.920;2023-04-25T03:00:00;8.17;;;3.57;;
4122;SDS011;2075;51.062;6.920;2023-04-25T03:02:47;7.83;;;4.07;;
4122;SDS011;2075;51.062;6.920;2023-04-25T03:05:32;9.57;;;3.60;;
4122;SDS011;2075;51.062;6.920;2023-04-25T03:08:17;5.67;;;3.27;;
4122;SDS011;2075;51.062;6.920;2023-04-25T03:11:03;7.03;;;3.60;;
4122;SDS011;2075;51.062;6.920;2023-04-25T03:13:48;11.00;;;3.17;;
4122;SDS011;2075;51.062;6.920;2023-04-25T03:16:34;11.67;;;4.50;;
4122;SDS011;2075;51.062;6.920;2023-04-25T03:19:21;9.20;;;3.43;;
4122;SDS011;2075;51.062;6.920;2023-04-25T03:22:06;8.40;;;3.50;;
4122;SDS011;2075;51.062;6.920;2023-04-25T03:24:52;5.60;;;4.10;;
4122;SDS011;2075;51.062;6.920;2023-04-25T03:27:37;4.97;;;3.50;;
4122;SDS011;2075;51.062;6.920;2023-04-25T03:30:23;10.73;;;4.47;;
4122;SDS011;2075;51.062;6.920;2023-04-25T03:33:09;10.40;;;4.47;;
4122;SDS011;2075;51.062;6.920;2023-04-25T03:35:56;13.40;;;5.77;;
4122;SDS011;2075;51.062;6.920;2023-04-25T03:38:42;5.77;;;3.67;;
4122;SDS011;2075;51.062;6.920;2023-04-25T03:41:29;9.40;;;4.20;;
4122;SDS011;2075;51.062;6.920;2023-04-25T03:44:20;16.47;;;4.97;;
4122;SDS011;2075;51.062;6.920;2023-04-25T03:47:06;8.17;;;4.00;;
4122;SDS011;2075;51.062;6.920;2023-04-25T03:49:51;14.13;;;5.20;;
4122;SDS011;2075;51.062;6.920;2023-04-25T03:52:40;13.73;;;5.27;;
4122;SDS011;2075;51.062;6.920;2023-04-25T03:55:26;11.00;;;4.67;;
4122;SDS011;2075;51.062;6.920;2023-04-25T03:58:11;12.50;;;4.90;;
4122;SDS011;2075;51.062;6.920;2023-04-25T04:00:57;10.70;;;4.73;;
4122;SDS011;2075;51.062;6.920;2023-04-25T04:03:42;7.67;;;4.60;;
4122;SDS011;2075;51.062;6.920;2023-04-25T04:06:27;13.27;;;5.10;;
4122;SDS011;2075;51.062;6.920;2023-04-25T04:09:27;14.97;;;5.47;;
4122;SDS011;2075;51.062;6.920;2023-04-25T04:12:14;13.43;;;5.40;;
4122;SDS011;2075;51.062;6.920;2023-04-25T04:15:00;13.50;;;5.13;;
4122;SDS011;2075;51.062;6.920;2023-04-25T04:17:47;12.07;;;5.50;;
4122;SDS011;2075;51.062;6.920;2023-04-25T04:20:33;11.87;;;4.90;;
4122;SDS011;2075;51.062;6.920;2023-04-25T04:23:18;11.60;;;5.63;;
4122;SDS011;2075;51.062;6.920;2023-04-25T04:26:06;14.10;;;5.63;;
4122;SDS011;2075;51.062;6.920;2023-04-25T04:28:59;14.60;;;5.57;;
4122;SDS011;2075;51.062;6.920;2023-04-25T04:32:12;9.83;;;5.40;;
4122;SDS011;2075;51.062;6.920;2023-04-25T04:34:57;16.33;;;5.73;;
4122;SDS011;2075;51.062;6.920;2023-04-25T04:37:43;12.80;;;5.77;;
4122;SDS011;2075;51.062;6.920;2023-04-25T04:40:31;23.87;;;5.83;;
4122;SDS011;2075;51.062;6.920;2023-04-25T04:43:44;20.03;;;6.13;;
4122;SDS011;2075;51.062;6.920;2023-04-25T04:47:02;22.17;;;5.20;;
4122;SDS011;2075;51.062;6.920;2023-04-25T04:50:10;13.80;;;5.20;;
4122;SDS011;2075;51.062;6.920;2023-04-25T04:53:14;13.93;;;5.10;;
4122;SDS011;2075;51.062;6.920;2023-04-25T04:56:11;13.03;;;5.47;;
4122;SDS011;2075;51.062;6.920;2023-04-25T04:59:10;10.87;;;4.63;;
4122;SDS011;2075;51.062;6.920;2023-04-25T05:02:06;17.20;;;5.97;;
4122;SDS011;2075;51.062;6.920;2023-04-25T05:05:10;16.57;;;5.40;;
4122;SDS011;2075;51.062;6.920;2023-04-25T05:08:17;12.43;;;5.50;;
4122;SDS011;2075;51.062;6.920;2023-04-25T05:11:25;13.87;;;5.30;;
4122;SDS011;2075;51.062;6.920;2023-04-25T05:14:36;20.60;;;5.87;;
4122;SDS011;2075;51.062;6.920;2023-04-25T05:17:44;14.50;;;5.03;;
4122;SDS011;2075;51.062;6.920;2023-04-25T05:20:50;12.03;;;4.60;;
4122;SDS011;2075;51.062;6.920;2023-04-25T05:24:14;26.63;;;5.53;;
4122;SDS011;2075;51.062;6.920;2023-04-25T05:27:19;14.83;;;7.10;;
4122;SDS011;2075;51.062;6.920;2023-04-25T05:30:29;19.77;;;5.10;;
4122;SDS011;2075;51.062;6.920;2023-04-25T05:33:22;19.37;;;5.40;;
4122;SDS011;2075;51.062;6.920;2023-04-25T05:36:07;13.97;;;4.77;;
4122;SDS011;2075;51.062;6.920;2023-04-25T05:38:53;19.00;;;5.20;;
4122;SDS011;2075;51.062;6.920;2023-04-25T05:41:39;15.93;;;5.00;;
4122;SDS011;2075;51.062;6.920;2023-04-25T05:44:51;12.30;;;4.83;;
4122;SDS011;2075;51.062;6.920;2023-04-25T05:48:01;12.90;;;4.33;;
4122;SDS011;2075;51.062;6.920;2023-04-25T05:51:06;15.10;;;4.83;;
4122;SDS011;2075;51.062;6.920;2023-04-25T05:54:04;9.03;;;4.13;;
4122;SDS011;2075;51.062;6.920;2023-04-25T05:56:51;12.57;;;4.70;;
4122;SDS011;2075;51.062;6.920;2023-04-25T05:59:36;21.20;;;4.47;;
4122;SDS011;2075;51.062;6.920;2023-04-25T06:02:22;10.40;;;4.50;;
4122;SDS011;2075;51.062;6.920;2023-04-25T06:05:09;18.17;;;4.67;;
4122;SDS011;2075;51.062;6.920;2023-04-25T06:07:55;13.43;;;4.20;;
4122;SDS011;2075;51.062;6.920;2023-04-25T06:10:40;13.37;;;4.00;;
4122;SDS011;2075;51.062;6.920;2023-04-25T06:13:26;11.30;;;4.33;;
4122;SDS011;2075;51.062;6.920;2023-04-25T06:16:12;17.93;;;4.70;;
4122;SDS011;2075;51.062;6.920;2023-04-25T06:18:58;18.90;;;4.40;;
4122;SDS011;2075;51.062;6.920;2023-04-25T06:21:45;8.53;;;4.00;;
4122;SDS011;2075;51.062;6.920;2023-04-25T06:24:30;15.90;;;4.97;;
4122;SDS011;2075;51.062;6.920;2023-04-25T06:27:16;9.77;;;4.00;;
4122;SDS011;2075;51.062;6.920;2023-04-25T06:30:02;14.30;;;4.73;;
4122;SDS011;2075;51.062;6.920;2023-04-25T06:32:49;14.23;;;4.43;;
4122;SDS011;2075;51.062;6.920;2023-04-25T06:35:35;15.27;;;4.93;;
4122;SDS011;2075;51.062;6.920;2023-04-25T06:38:23;26.70;;;5.07;;
4122;SDS011;2075;51.062;6.920;2023-04-25T06:41:09;18.33;;;5.10;;
4122;SDS011;2075;51.062;6.920;2023-04-25T06:43:55;11.93;;;4.80;;
4122;SDS011;2075;51.062;6.920;2023-04-25T06:46:50;14.17;;;5.03;;
4122;SDS011;2075;51.062;6.920;2023-04-25T06:49:37;17.67;;;5.07;;
4122;SDS011;2075;51.062;6.920;2023-04-25T06:52:23;26.07;;;4.87;;
4122;SDS011;2075;51.062;6.920;2023-04-25T06:55:11;14.83;;;4.17;;
4122;SDS011;2075;51.062;6.920;2023-04-25T06:58:13;14.80;;;4.40;;
4122;SDS011;2075;51.062;6.920;2023-04-25T07:01:21;12.97;;;4.37;;
4122;SDS011;2075;51.062;6.920;2023-04-25T07:04:07;9.50;;;4.13;;
4122;SDS011;2075;51.062;6.920;2023-04-25T07:06:56;9.13;;;4.20;;
4122;SDS011;2075;51.062;6.920;2023-04-25T07:09:54;17.60;;;4.23;;
4122;SDS011;2075;51.062;6.920;2023-04-25T07:12:40;17.40;;;4.27;;
4122;SDS011;2075;51.062;6.920;2023-04-25T07:15:26;19.83;;;4.60;;
4122;SDS011;2075;51.062;6.920;2023-04-25T07:18:13;14.00;;;4.33;;
4122;SDS011;2075;51.062;6.920;2023-04-25T07:21:00;18.37;;;5.27;;
4122;SDS011;2075;51.062;6.920;2023-04-25T07:23:46;17.73;;;4.47;;
4122;SDS011;2075;51.062;6.920;2023-04-25T07:26:36;9.67;;;4.23;;
4122;SDS011;2075;51.062;6.920;2023-04-25T07:29:40;14.90;;;4.10;;
4122;SDS011;2075;51.062;6.920;2023-04-25T07:32:26;9.63;;;3.57;;
4122;SDS011;2075;51.062;6.920;2023-04-25T07:35:12;25.87;;;5.27;;
4122;SDS011;2075;51.062;6.920;2023-04-25T07:37:59;15.10;;;4.30;;
4122;SDS011;2075;51.062;6.920;2023-04-25T07:40:45;7.30;;;3.40;;
4122;SDS011;2075;51.062;6.920;2023-04-25T07:43:32;12.50;;;3.80;;
4122;SDS011;2075;51.062;6.920;2023-04-25T07:46:20;13.47;;;3.70;;
4122;SDS011;2075;51.062;6.920;2023-04-25T07:49:07;13.97;;;4.27;;
4122;SDS011;2075;51.062;6.920;2023-04-25T07:51:54;14.77;;;3.53;;
4122;SDS011;2075;51.062;6.920;2023-04-25T07:54:41;16.37;;;3.87;;
4122;SDS011;2075;51.062;6.920;2023-04-25T07:57:33;12.57;;;3.53;;
4122;SDS011;2075;51.062;6.920;2023-04-25T08:00:31;10.27;;;3.63;;
4122;SDS011;2075;51.062;6.920;2023-04-25T08:03:37;12.70;;;3.90;;
4122;SDS011;2075;51.062;6.920;2023-04-25T08:06:28;19.30;;;3.77;;
4122;SDS011;2075;51.062;6.920;2023-04-25T08:09:29;11.33;;;3.20;;
4122;SDS011;2075;51.062;6.920;2023-04-25T08:12:18;10.87;;;3.20;;
4122;SDS011;2075;51.062;6.920;2023-04-25T08:15:05;13.35;;;3.45;;
4122;SDS011;2075;51.062;6.920;2023-04-25T08:17:53;12.93;;;3.50;;
4122;SDS011;2075;51.062;6.920;2023-04-25T08:20:41;9.47;;;3.37;;
4122;SDS011;2075;51.062;6.920;2023-04-25T08:23:28;6.97;;;3.13;;
4122;SDS011;2075;51.062;6.920;2023-04-25T08:26:24;9.60;;;3.17;;
4122;SDS011;2075;51.062;6.920;2023-04-25T08:31:59;9.57;;;4.00;;
4122;SDS011;2075;51.062;6.920;2023-04-25T08:34:45;16.63;;;4.40;;
4122;SDS011;2075;51.062;6.920;2023-04-25T08:37:33;11.18;;;4.50;;
4122;SDS011;2075;51.062;6.920;2023-04-25T08:40:27;8.37;;;3.57;;
4122;SDS011;2075;51.062;6.920;2023-04-25T08:43:23;15.93;;;3.90;;
4122;SDS011;2075;51.062;6.920;2023-04-25T08:46:10;9.37;;;3.63;;
4122;SDS011;2075;51.062;6.920;2023-04-25T08:49:12;21.13;;;3.77;;
4122;SDS011;2075;51.062;6.920;2023-04-25T08:51:59;16.23;;;4.40;;
4122;SDS011;2075;51.062;6.920;2023-04-25T08:54:48;12.17;;;3.67;;
4122;SDS011;2075;51.062;6.920;2023-04-25T08:57:36;7.60;;;3.07;;
4122;SDS011;2075;51.062;6.920;2023-04-25T09:00:22;18.43;;;3.07;;
4122;SDS011;2075;51.062;6.920;2023-04-25T09:03:07;10.10;;;3.20;;
4122;SDS011;2075;51.062;6.920;2023-04-25T09:05:53;13.07;;;3.30;;
4122;SDS011;2075;51.062;6.920;2023-04-25T09:08:40;14.67;;;3.00;;
4122;SDS011;2075;51.062;6.920;2023-04-25T09:11:27;6.40;;;2.90;;
4122;SDS011;2075;51.062;6.920;2023-04-25T09:14:14;12.80;;;3.03;;
4122;SDS011;2075;51.062;6.920;2023-04-25T09:17:33;6.70;;;2.70;;
4122;SDS011;2075;51.062;6.920;2023-04-25T09:20:23;7.57;;;2.73;;
4122;SDS011;2075;51.062;6.920;2023-04-25T09:23:09;11.63;;;4.10;;
4122;SDS011;2075;51.062;6.920;2023-04-25T09:25:55;7.80;;;3.57;;
4122;SDS011;2075;51.062;6.920;2023-04-25T09:28:43;4.00;;;2.53;;
4122;SDS011;2075;51.062;6.920;2023-04-25T09:31:30;7.60;;;2.30;;
4122;SDS011;2075;51.062;6.920;2023-04-25T09:34:21;11.13;;;2.80;;
4122;SDS011;2075;51.062;6.920;2023-04-25T09:37:13;4.90;;;2.70;;
4122;SDS011;2075;51.062;6.920;2023-04-25T09:40:34;8.37;;;2.70;;
4122;SDS011;2075;51.062;6.920;2023-04-25T09:43:31;5.20;;;2.47;;
4122;SDS011;2075;51.062;6.920;2023-04-25T09:46:18;6.37;;;1.90;;
4122;SDS011;2075;51.062;6.920;2023-04-25T09:49:10;7.80;;;2.27;;
4122;SDS011;2075;51.062;6.920;2023-04-25T09:52:05;6.40;;;2.43;;
4122;SDS011;2075;51.062;6.920;2023-04-25T09:55:04;5.87;;;2.60;;
4122;SDS011;2075;51.062;6.920;2023-04-25T09:57:52;4.00;;;2.40;;
4122;SDS011;2075;51.062;6.920;2023-04-25T10:00:41;6.93;;;2.07;;
4122;SDS011;2075;51.062;6.920;2023-04-25T10:03:41;7.10;;;2.30;;
4122;SDS011;2075;51.062;6.920;2023-04-25T10:06:48;4.50;;;2.40;;
4122;SDS011;2075;51.062;6.920;2023-04-25T10:09:36;5.40;;;2.20;;
4122;SDS011;2075;51.062;6.920;2023-04-25T10:12:26;3.43;;;2.47;;
4122;SDS011;2075;51.062;6.920;2023-04-25T10:15:11;19.07;;;2.93;;
4122;SDS011;2075;51.062;6.920;2023-04-25T10:18:00;5.07;;;2.63;;
4122;SDS011;2075;51.062;6.920;2023-04-25T10:20:47;6.17;;;2.40;;
4122;SDS011;2075;51.062;6.920;2023-04-25T10:23:33;8.00;;;2.73;;
4122;SDS011;2075;51.062;6.920;2023-04-25T10:26:21;6.03;;;2.40;;
4122;SDS011;2075;51.062;6.920;2023-04-25T10:29:08;9.97;;;2.33;;
4122;SDS011;2075;51.062;6.920;2023-04-25T10:31:56;4.60;;;2.00;;
4122;SDS011;2075;51.062;6.920;2023-04-25T10:34:43;7.33;;;2.27;;
4122;SDS011;2075;51.062;6.920;2023-04-25T10:37:32;7.77;;;3.10;;
4122;SDS011;2075;51.062;6.920;2023-04-25T10:40:21;9.80;;;3.03;;
4122;SDS011;2075;51.062;6.920;2023-04-25T10:46:24;11.03;;;2.63;;
4122;SDS011;2075;51.062;6.920;2023-04-25T10:49:28;5.80;;;1.87;;
4122;SDS011;2075;51.062;6.920;2023-04-25T10:52:18;6.60;;;1.90;;
4122;SDS011;2075;51.062;6.920;2023-04-25T10:55:13;4.33;;;1.93;;
4122;SDS011;2075;51.062;6.920;2023-04-25T10:57:58;5.57;;;1.80;;
4122;SDS011;2075;51.062;6.920;2023-04-25T11:00:45;4.13;;;1.97;;
4122;SDS011;2075;51.062;6.920;2023-04-25T11:03:31;5.90;;;2.17;;
4122;SDS011;2075;51.062;6.920;2023-04-25T11:06:20;4.53;;;1.80;;
4122;SDS011;2075;51.062;6.920;2023-04-25T11:09:09;4.93;;;2.13;;
4122;SDS011;2075;51.062;6.920;2023-04-25T11:11:59;7.53;;;2.63;;
4122;SDS011;2075;51.062;6.920;2023-04-25T11:14:45;4.57;;;1.90;;
4122;SDS011;2075;51.062;6.920;2023-04-25T11:17:31;8.17;;;2.10;;
4122;SDS011;2075;51.062;6.920;2023-04-25T11:20:16;4.13;;;1.70;;
4122;SDS011;2075;51.062;6.920;2023-04-25T11:23:02;9.87;;;2.50;;
4122;SDS011;2075;51.062;6.920;2023-04-25T11:25:47;5.20;;;2.50;;
4122;SDS011;2075;51.062;6.920;2023-04-25T11:28:39;10.10;;;3.00;;
4122;SDS011;2075;51.062;6.920;2023-04-25T11:31:43;4.00;;;2.27;;
4122;SDS011;2075;51.062;6.920;2023-04-25T11:34:30;6.33;;;1.80;;
4122;SDS011;2075;51.062;6.920;2023-04-25T11:37:17;7.63;;;2.80;;
4122;SDS011;2075;51.062;6.920;2023-04-25T11:40:03;8.30;;;2.10;;
4122;SDS011;2075;51.062;6.920;2023-04-25T11:42:51;7.70;;;2.10;;
4122;SDS011;2075;51.062;6.920;2023-04-25T11:45:41;3.13;;;1.80;;
4122;SDS011;2075;51.062;6.920;2023-04-25T11:48:36;4.13;;;2.00;;
4122;SDS011;2075;51.062;6.920;2023-04-25T11:51:27;4.57;;;2.30;;
4122;SDS011;2075;51.062;6.920;2023-04-25T11:54:14;7.60;;;2.30;;
4122;SDS011;2075;51.062;6.920;2023-04-25T11:57:00;6.07;;;2.07;;
4122;SDS011;2075;51.062;6.920;2023-04-25T11:59:47;5.50;;;2.03;;
4122;SDS011;2075;51.062;6.920;2023-04-25T12:02:39;4.73;;;1.97;;
4122;SDS011;2075;51.062;6.920;2023-04-25T12:05:26;9.23;;;2.10;;
4122;SDS011;2075;51.062;6.920;2023-04-25T12:08:13;8.00;;;2.50;;
4122;SDS011;2075;51.062;6.920;2023-04-25T12:11:00;2.00;;;1.83;;
4122;SDS011;2075;51.062;6.920;2023-04-25T12:13:46;3.80;;;1.93;;
4122;SDS011;2075;51.062;6.920;2023-04-25T12:16:40;9.90;;;2.37;;
4122;SDS011;2075;51.062;6.920;2023-04-25T12:19:41;5.72;;;2.60;;
4122;SDS011;2075;51.062;6.920;2023-04-25T12:22:28;7.90;;;2.40;;
4122;SDS011;2075;51.062;6.920;2023-04-25T12:28:24;10.93;;;2.30;;
4122;SDS011;2075;51.062;6.920;2023-04-25T12:31:17;7.17;;;1.90;;
4122;SDS011;2075;51.062;6.920;2023-04-25T12:34:06;4.10;;;2.07;;
4122;SDS011;2075;51.062;6.920;2023-04-25T12:36:54;4.60;;;2.10;;
4122;SDS011;2075;51.062;6.920;2023-04-25T12:39:40;5.50;;;2.67;;
4122;SDS011;2075;51.062;6.920;2023-04-25T12:42:27;8.03;;;2.70;;
4122;SDS011;2075;51.062;6.920;2023-04-25T12:45:13;8.40;;;2.60;;
4122;SDS011;2075;51.062;6.920;2023-04-25T12:56:07;6.63;;;2.70;;
4122;SDS011;2075;51.062;6.920;2023-04-25T13:01:36;5.60;;;2.27;;
4122;SDS011;2075;51.062;6.920;2023-04-25T13:07:09;2.53;;;2.00;;
4122;SDS011;2075;51.062;6.920;2023-04-25T13:09:56;7.33;;;2.43;;
4122;SDS011;2075;51.062;6.920;2023-04-25T13:15:37;6.60;;;2.10;;
4122;SDS011;2075;51.062;6.920;2023-04-25T13:18:28;6.67;;;2.50;;
4122;SDS011;2075;51.062;6.920;2023-04-25T13:21:32;8.33;;;2.53;;
4122;SDS011;2075;51.062;6.920;2023-04-25T13:24:20;9.47;;;3.43;;
4122;SDS011;2075;51.062;6.920;2023-04-25T13:27:14;7.80;;;3.47;;
4122;SDS011;2075;51.062;6.920;2023-04-25T13:38:17;11.20;;;4.10;;
4122;SDS011;2075;51.062;6.920;2023-04-25T13:41:12;11.53;;;3.63;;
4122;SDS011;2075;51.062;6.920;2023-04-25T13:50:00;4.63;;;2.80;;
4122;SDS011;2075;51.062;6.920;2023-04-25T13:52:47;6.30;;;2.97;;
4122;SDS011;2075;51.062;6.920;2023-04-25T13:55:35;12.43;;;2.70;;
4122;SDS011;2075;51.062;6.920;2023-04-25T13:58:23;4.90;;;2.17;;
4122;SDS011;2075;51.062;6.920;2023-04-25T14:01:09;8.73;;;2.50;;
4122;SDS011;2075;51.062;6.920;2023-04-25T14:03:54;5.07;;;2.53;;
4122;SDS011;2075;51.062;6.920;2023-04-25T14:06:40;4.80;;;2.35;;
4122;SDS011;2075;51.062;6.920;2023-04-25T14:09:25;5.37;;;2.57;;
4122;SDS011;2075;51.062;6.920;2023-04-25T14:12:12;4.23;;;2.40;;
4122;SDS011;2075;51.062;6.920;2023-04-25T14:14:58;7.73;;;2.40;;
4122;SDS011;2075;51.062;6.920;2023-04-25T14:17:43;8.50;;;1.90;;
4122;SDS011;2075;51.062;6.920;2023-04-25T14:20:29;1.43;;;1.23;;
4122;SDS011;2075;51.062;6.920;2023-04-25T14:23:16;2.70;;;1.30;;
4122;SDS011;2075;51.062;6.920;2023-04-25T14:26:01;3.33;;;1.43;;
4122;SDS011;2075;51.062;6.920;2023-04-25T14:28:48;1.93;;;1.20;;
4122;SDS011;2075;51.062;6.920;2023-04-25T14:31:34;1.33;;;1.23;;
4122;SDS011;2075;51.062;6.920;2023-04-25T14:34:20;7.03;;;1.83;;
4122;SDS011;2075;51.062;6.920;2023-04-25T14:37:06;6.13;;;1.80;;
4122;SDS011;2075;51.062;6.920;2023-04-25T14:39:51;3.47;;;1.60;;
4122;SDS011;2075;51.062;6.920;2023-04-25T14:42:37;3.10;;;2.00;;
4122;SDS011;2075;51.062;6.920;2023-04-25T14:45:25;5.63;;;1.87;;
4122;SDS011;2075;51.062;6.920;2023-04-25T14:48:10;2.13;;;1.90;;
4122;SDS011;2075;51.062;6.920;2023-04-25T14:50:56;4.97;;;1.90;;
4122;SDS011;2075;51.062;6.920;2023-04-25T14:53:41;1.63;;;1.40;;
4122;SDS011;2075;51.062;6.920;2023-04-25T14:56:27;3.90;;;1.90;;
4122;SDS011;2075;51.062;6.920;2023-04-25T14:59:15;2.60;;;1.80;;
4122;SDS011;2075;51.062;6.920;2023-04-25T15:02:02;3.50;;;1.73;;
4122;SDS011;2075;51.062;6.920;2023-04-25T15:04:47;4.60;;;2.03;;
4122;SDS011;2075;51.062;6.920;2023-04-25T15:07:34;2.53;;;1.80;;
4122;SDS011;2075;51.062;6.920;2023-04-25T15:10:29;10.33;;;2.40;;
4122;SDS011;2075;51.062;6.920;2023-04-25T15:13:30;4.43;;;2.17;;
4122;SDS011;2075;51.062;6.920;2023-04-25T15:16:22;2.43;;;1.97;;
4122;SDS011;2075;51.062;6.920;2023-04-25T15:27:08;4.43;;;2.40;;
4122;SDS011;2075;51.062;6.920;2023-04-25T15:30:09;11.93;;;2.67;;
4122;SDS011;2075;51.062;6.920;2023-04-25T15:33:05;5.80;;;2.10;;
4122;SDS011;2075;51.062;6.920;2023-04-25T15:36:10;2.67;;;1.90;;
4122;SDS011;2075;51.062;6.920;2023-04-25T15:39:01;2.40;;;2.10;;
4122;SDS011;2075;51.062;6.920;2023-04-25T15:41:48;3.83;;;2.20;;
4122;SDS011;2075;51.062;6.920;2023-04-25T15:44:35;5.47;;;2.10;;
4122;SDS011;2075;51.062;6.920;2023-04-25T15:47:21;6.83;;;2.20;;
4122;SDS011;2075;51.062;6.920;2023-04-25T15:50:14;3.57;;;2.37;;
4122;SDS011;2075;51.062;6.920;2023-04-25T15:55:51;4.13;;;2.37;;
4122;SDS011;2075;51.062;6.920;2023-04-25T15:58:46;6.53;;;2.33;;
4122;SDS011;2075;51.062;6.920;2023-04-25T16:01:36;3.10;;;2.53;;
4122;SDS011;2075;51.062;6.920;2023-04-25T16:04:23;5.10;;;2.17;;
4122;SDS011;2075;51.062;6.920;2023-04-25T16:07:10;4.13;;;2.30;;
4122;SDS011;2075;51.062;6.920;2023-04-25T16:10:06;4.13;;;2.40;;
4122;SDS011;2075;51.062;6.920;2023-04-25T16:12:52;2.93;;;2.20;;
4122;SDS011;2075;51.062;6.920;2023-04-25T16:15:43;4.50;;;2.50;;
4122;SDS011;2075;51.062;6.920;2023-04-25T16:21:18;4.00;;;1.90;;
4122;SDS011;2075;51.062;6.920;2023-04-25T16:24:05;3.40;;;2.30;;
4122;SDS011;2075;51.062;6.920;2023-04-25T16:26:53;4.60;;;2.30;;
4122;SDS011;2075;51.062;6.920;2023-04-25T16:32:28;8.97;;;2.77;;
4122;SDS011;2075;51.062;6.920;2023-04-25T16:35:18;3.77;;;2.27;;
4122;SDS011;2075;51.062;6.920;2023-04-25T16:38:06;4.30;;;2.03;;
4122;SDS011;2075;51.062;6.920;2023-04-25T16:40:55;4.17;;;2.10;;
4122;SDS011;2075;51.062;6.920;2023-04-25T16:43:43;1.93;;;1.73;;
4122;SDS011;2075;51.062;6.920;2023-04-25T16:46:33;3.37;;;1.80;;
4122;SDS011;2075;51.062;6.920;2023-04-25T16:49:19;5.40;;;2.27;;
4122;SDS011;2075;51.062;6.920;2023-04-25T16:52:05;2.27;;;2.00;;
4122;SDS011;2075;51.062;6.920;2023-04-25T16:54:52;4.97;;;1.87;;
4122;SDS011;2075;51.062;6.920;2023-04-25T16:57:37;4.37;;;1.80;;
4122;SDS011;2075;51.062;6.920;2023-04-25T17:00:23;3.73;;;1.60;;
4122;SDS011;2075;51.062;6.920;2023-04-25T17:03:09;4.97;;;2.10;;
4122;SDS011;2075;51.062;6.920;2023-04-25T17:05:55;6.93;;;1.80;;
4122;SDS011;2075;51.062;6.920;2023-04-25T17:08:43;4.87;;;2.20;;
4122;SDS011;2075;51.062;6.920;2023-04-25T17:11:32;4.03;;;1.83;;
4122;SDS011;2075;51.062;6.920;2023-04-25T17:19:40;5.10;;;2.33;;
4122;SDS011;2075;51.062;6.920;2023-04-25T17:27:54;6.07;;;1.70;;
4122;SDS011;2075;51.062;6.920;2023-04-25T17:30:42;2.93;;;1.70;;
4122;SDS011;2075;51.062;6.920;2023-04-25T17:33:28;4.90;;;2.20;;
4122;SDS011;2075;51.062;6.920;2023-04-25T17:39:44;2.63;;;2.10;;
4122;SDS011;2075;51.062;6.920;2023-04-25T17:42:40;2.60;;;2.17;;
4122;SDS011;2075;51.062;6.920;2023-04-25T17:45:27;2.90;;;1.97;;
4122;SDS011;2075;51.062;6.920;2023-04-25T17:48:17;2.13;;;1.93;;
4122;SDS011;2075;51.062;6.920;2023-04-25T17:51:05;4.63;;;2.60;;
4122;SDS011;2075;51.062;6.920;2023-04-25T17:53:50;2.00;;;1.70;;
4122;SDS011;2075;51.062;6.920;2023-04-25T17:56:35;3.13;;;2.50;;
4122;SDS011;2075;51.062;6.920;2023-04-25T17:59:22;4.00;;;1.57;;
4122;SDS011;2075;51.062;6.920;2023-04-25T18:02:08;2.50;;;1.60;;
4122;SDS011;2075;51.062;6.920;2023-04-25T18:04:54;2.80;;;1.67;;
4122;SDS011;2075;51.062;6.920;2023-04-25T18:07:39;3.13;;;1.90;;
4122;SDS011;2075;51.062;6.920;2023-04-25T18:10:25;5.77;;;1.83;;
4122;SDS011;2075;51.062;6.920;2023-04-25T18:13:11;3.70;;;1.80;;
4122;SDS011;2075;51.062;6.920;2023-04-25T18:15:57;6.20;;;3.17;;
4122;SDS011;2075;51.062;6.920;2023-04-25T18:18:45;4.30;;;1.90;;
4122;SDS011;2075;51.062;6.920;2023-04-25T18:21:35;5.43;;;2.30;;
4122;SDS011;2075;51.062;6.920;2023-04-25T18:24:21;6.37;;;2.00;;
4122;SDS011;2075;51.062;6.920;2023-04-25T18:27:09;4.33;;;2.80;;
4122;SDS011;2075;51.062;6.920;2023-04-25T18:29:55;25.57;;;5.77;;
4122;SDS011;2075;51.062;6.920;2023-04-25T18:32:41;9.57;;;4.67;;
4122;SDS011;2075;51.062;6.920;2023-04-25T18:35:28;11.00;;;2.67;;
4122;SDS011;2075;51.062;6.920;2023-04-25T18:38:14;5.67;;;2.50;;